Time;durP1;ratioP1;P1;durP2;ratioP2;P2;SDS_P1;SDS_P2;PMS_P1;PMS_P2;Temp;Humidity;BMP_temperature;BMP_pressure;BME280_temperature;BME280_humidity;BME280_pressure;Samples;Min_cycle;Max_cycle;Signal;HPM_P1;HPM_P2
2024/04/10 00:00:12;;;;;;;3.75;1.98;;;15.10;73.40;;;;;;5459084;26;20007;-35
2024/04/10 00:02:41;;;;;;;5.18;2.03;;;15.20;73.50;;;;;;5489460;26;19994;-36
2024/04/10 00:05:08;;;;;;;6.35;2.03;;;15.10;73.40;;;;;;5481534;26;20009;-35
2024/04/10 00:07:35;;;;;;;4.35;1.92;;;15.10;73.40;;;;;;5490458;26;20006;-34
2024/04/10 00:10:01;;;;;;;5.72;2.28;;;15.10;73.40;;;;;;5469721;26;19995;-35
2024/04/10 00:12:27;;;;;;;3.92;1.80;;;15.10;73.50;;;;;;5486747;26;20066;-35
2024/04/10 00:14:53;;;;;;;4.63;2.20;;;15.10;73.40;;;;;;5491264;26;19997;-35
2024/04/10 00:17:19;;;;;;;5.30;2.25;;;15.10;73.40;;;;;;5487931;26;20017;-34
2024/04/10 00:19:51;;;;;;;3.97;1.67;;;15.10;73.40;;;;;;5483525;26;20014;-35
2024/04/10 00:22:18;;;;;;;9.82;2.42;;;15.10;73.50;;;;;;5457452;26;20006;-35
2024/04/10 00:24:44;;;;;;;6.60;2.40;;;15.10;73.50;;;;;;5487359;26;20164;-35
2024/04/10 00:27:10;;;;;;;4.20;2.00;;;15.10;73.50;;;;;;5481159;26;20010;-35
2024/04/10 00:29:36;;;;;;;4.47;2.08;;;15.00;73.50;;;;;;5481831;26;20002;-35
2024/04/10 00:32:04;;;;;;;4.93;2.22;;;15.00;73.50;;;;;;5485408;26;20026;-34
2024/04/10 00:34:30;;;;;;;5.63;2.20;;;15.00;73.50;;;;;;5480851;26;20066;-35
2024/04/10 00:36:55;;;;;;;5.70;1.90;;;15.00;73.50;;;;;;5484535;26;20007;-36
2024/04/10 00:39:21;;;;;;;5.45;2.00;;;15.00;73.50;;;;;;5479672;26;20013;-35
2024/04/10 00:41:47;;;;;;;5.50;2.25;;;15.00;73.50;;;;;;5495543;26;20009;-35
2024/04/10 00:44:13;;;;;;;3.20;1.80;;;15.00;73.50;;;;;;5478357;26;20015;-35
2024/04/10 00:46:39;;;;;;;6.47;2.10;;;15.00;74.20;;;;;;5481189;26;20669;-35
2024/04/10 00:49:05;;;;;;;3.42;1.95;;;14.90;73.60;;;;;;5488272;26;20051;-35
2024/04/10 00:51:31;;;;;;;5.50;2.08;;;14.90;73.50;;;;;;5488538;25;20203;-35
2024/04/10 00:53:59;;;;;;;5.72;2.28;;;14.90;73.50;;;;;;5486022;26;19998;-34
2024/04/10 00:56:25;;;;;;;3.72;1.85;;;14.90;73.50;;;;;;5495225;26;20556;-34
2024/04/10 00:58:51;;;;;;;4.82;2.13;;;14.90;73.60;;;;;;5488866;26;20009;-35
2024/04/10 01:01:17;;;;;;;5.25;2.35;;;14.90;73.60;;;;;;5456102;26;20002;-35
2024/04/10 01:03:42;;;;;;;5.32;2.05;;;14.80;73.60;;;;;;5483738;26;20002;-35
2024/04/10 01:06:09;;;;;;;5.15;1.90;;;14.80;73.60;;;;;;5485755;26;20520;-37
2024/04/10 01:08:37;;;;;;;4.50;2.08;;;14.80;73.60;;;;;;5483976;26;20017;-35
2024/04/10 01:11:05;;;;;;;6.75;2.20;;;14.80;73.70;;;;;;5479610;26;20034;-36
2024/04/10 01:13:32;;;;;;;4.35;1.95;;;14.80;73.70;;;;;;5490642;26;20014;-35
2024/04/10 01:15:58;;;;;;;4.45;2.20;;;14.80;73.60;;;;;;5491616;26;20009;-35
2024/04/10 01:18:23;;;;;;;6.60;2.15;;;14.80;73.60;;;;;;5492550;26;20018;-35
2024/04/10 01:20:49;;;;;;;3.72;1.90;;;14.70;73.60;;;;;;5493210;26;20436;-35
2024/04/10 01:23:16;;;;;;;3.88;2.17;;;14.70;73.60;;;;;;5481126;26;20365;-35
2024/04/10 01:25:42;;;;;;;3.45;1.80;;;14.70;73.70;;;;;;5483863;26;20010;-35
2024/04/10 01:28:08;;;;;;;4.63;2.00;;;14.70;73.70;;;;;;5489796;26;20039;-35
2024/04/10 01:30:34;;;;;;;5.72;2.17;;;14.70;73.70;;;;;;5472007;26;20500;-35
2024/04/10 01:33:00;;;;;;;4.97;2.10;;;14.70;73.70;;;;;;5477556;26;20002;-35
2024/04/10 01:35:26;;;;;;;8.55;1.98;;;14.60;73.60;;;;;;5455665;26;20002;-35
2024/04/10 01:37:52;;;;;;;5.18;1.90;;;14.70;73.70;;;;;;5482986;26;20013;-34
2024/04/10 01:40:18;;;;;;;4.53;2.00;;;14.60;73.70;;;;;;5472115;26;20067;-34
2024/04/10 01:42:44;;;;;;;4.47;2.13;;;14.60;73.80;;;;;;5474816;26;19994;-34
2024/04/10 01:45:10;;;;;;;4.05;1.90;;;14.60;73.80;;;;;;5482764;26;20006;-34
2024/04/10 01:47:36;;;;;;;4.93;1.92;;;14.60;73.80;;;;;;5482932;26;20002;-35
2024/04/10 01:50:02;;;;;;;3.58;1.90;;;14.60;73.90;;;;;;5479450;26;20465;-35
2024/04/10 01:52:28;;;;;;;4.53;2.00;;;14.60;73.90;;;;;;5482908;26;20009;-35
2024/04/10 01:54:54;;;;;;;3.92;1.77;;;14.60;74.60;;;;;;5484160;26;19998;-35
2024/04/10 01:57:21;;;;;;;5.15;2.00;;;14.50;73.90;;;;;;5485324;26;19998;-34
2024/04/10 01:59:47;;;;;;;3.67;1.90;;;14.60;74.00;;;;;;5483361;26;20013;-34
2024/04/10 02:02:13;;;;;;;5.13;1.90;;;14.50;73.90;;;;;;5479619;26;20048;-35
2024/04/10 02:04:39;;;;;;;3.53;2.00;;;14.50;74.00;;;;;;5482998;26;19998;-35
2024/04/10 02:07:05;;;;;;;4.40;2.08;;;14.50;74.00;;;;;;5489089;26;20070;-35
2024/04/10 02:09:31;;;;;;;4.50;2.08;;;14.50;74.00;;;;;;5483822;26;19998;-40
2024/04/10 02:11:57;;;;;;;4.30;2.00;;;14.50;74.00;;;;;;5484699;26;20085;-35
2024/04/10 02:14:23;;;;;;;4.53;2.10;;;14.50;74.10;;;;;;5470354;26;20010;-35
2024/04/10 02:16:49;;;;;;;5.03;2.20;;;14.50;74.10;;;;;;5464680;26;19990;-35
2024/04/10 02:19:14;;;;;;;3.90;2.05;;;14.50;74.10;;;;;;5480678;26;20425;-34
2024/04/10 02:21:40;;;;;;;4.05;2.10;;;14.40;74.10;;;;;;5486678;26;20013;-35
2024/04/10 02:24:06;;;;;;;5.28;2.03;;;14.50;74.10;;;;;;5487520;26;20091;-35
2024/04/10 02:26:33;;;;;;;3.50;1.92;;;14.40;74.10;;;;;;5474872;26;20013;-35
2024/04/10 02:28:59;;;;;;;5.22;2.10;;;14.40;74.10;;;;;;5479543;26;20016;-36
2024/04/10 02:31:24;;;;;;;3.22;2.00;;;14.40;74.10;;;;;;5487283;26;20476;-35
2024/04/10 02:33:50;;;;;;;4.45;2.50;;;14.40;74.10;;;;;;5478641;26;19999;-34
2024/04/10 02:36:16;;;;;;;5.25;2.28;;;14.40;74.10;;;;;;5483361;26;20007;-35
2024/04/10 02:38:42;;;;;;;3.35;2.13;;;14.40;74.20;;;;;;5461219;26;19998;-34
2024/04/10 02:41:08;;;;;;;4.30;2.05;;;14.40;74.20;;;;;;5472289;26;20002;-35
2024/04/10 02:43:33;;;;;;;4.55;2.22;;;14.40;74.20;;;;;;5473715;26;20014;-34
2024/04/10 02:46:01;;;;;;;5.05;2.15;;;14.30;74.20;;;;;;5477243;26;19994;-35
2024/04/10 02:48:27;;;;;;;4.10;2.03;;;14.40;74.20;;;;;;5479124;26;20012;-34
2024/04/10 02:50:54;;;;;;;3.40;2.08;;;14.30;74.20;;;;;;5466057;26;20003;-35
2024/04/10 02:53:20;;;;;;;5.57;2.50;;;14.40;74.30;;;;;;5473946;26;20010;-34
2024/04/10 02:55:48;;;;;;;3.70;2.08;;;14.30;74.30;;;;;;5478018;26;20018;-34
2024/04/10 02:58:14;;;;;;;5.28;2.40;;;14.30;74.30;;;;;;5482968;26;20052;-35
2024/04/10 03:00:59;;;;;;;4.25;2.15;;;14.30;74.30;;;;;;5482265;26;20043;-35
2024/04/10 03:03:25;;;;;;;4.00;1.93;;;14.30;74.30;;;;;;5490074;26;20051;-35
2024/04/10 03:06:41;;;;;;;3.08;1.92;;;14.30;74.30;;;;;;5471912;26;20009;-34
2024/04/10 03:09:08;;;;;;;4.30;2.15;;;14.30;74.30;;;;;;5388451;26;20019;-32
2024/04/10 03:11:33;;;;;;;3.70;2.05;;;14.30;74.30;;;;;;5448782;26;20002;-31
2024/04/10 03:13:59;;;;;;;4.25;2.15;;;14.20;74.30;;;;;;5448935;26;19999;-31
2024/04/10 03:17:57;;;;;;;3.30;2.10;;;14.20;74.30;;;;;;5501273;25;20450;-32
2024/04/10 03:20:23;;;;;;;5.03;2.70;;;14.20;74.30;;;;;;5489325;25;20011;-32
2024/04/10 03:22:49;;;;;;;2.95;1.95;;;14.20;74.30;;;;;;5499960;26;19999;-32
2024/04/10 03:25:16;;;;;;;4.72;2.33;;;14.30;74.40;;;;;;5483950;26;20002;-31
2024/04/10 03:27:42;;;;;;;4.90;2.45;;;14.20;74.40;;;;;;5481853;26;19999;-33
2024/04/10 03:30:10;;;;;;;3.50;2.10;;;14.20;74.40;;;;;;5467145;26;19995;-34
2024/04/10 03:32:37;;;;;;;5.43;2.50;;;14.20;74.40;;;;;;5481217;26;20424;-31
2024/04/10 03:35:04;;;;;;;4.72;2.28;;;14.20;74.40;;;;;;5472565;25;20002;-33
2024/04/10 03:37:30;;;;;;;5.60;2.28;;;14.20;74.40;;;;;;5503059;25;20005;-32
2024/04/10 03:39:56;;;;;;;4.22;2.20;;;14.20;74.40;;;;;;5495503;26;19991;-34
2024/04/10 03:42:25;;;;;;;4.18;2.72;;;14.20;74.40;;;;;;5492553;26;20001;-32
2024/04/10 03:44:51;;;;;;;4.35;2.15;;;14.20;74.40;;;;;;5493853;25;19998;-33
2024/04/10 03:47:16;;;;;;;5.43;2.15;;;14.20;74.40;;;;;;5498221;25;20009;-33
2024/04/10 03:49:43;;;;;;;5.38;2.05;;;14.20;74.50;;;;;;5484066;26;20391;-32
2024/04/10 03:52:09;;;;;;;5.13;2.10;;;14.20;74.50;;;;;;5495515;25;19998;-35
2024/04/10 03:54:36;;;;;;;3.92;2.17;;;14.20;74.50;;;;;;5500441;25;20005;-30
2024/04/10 03:57:02;;;;;;;5.65;2.63;;;14.20;74.50;;;;;;5500201;25;20003;-41
2024/04/10 03:59:27;;;;;;;4.18;2.17;;;14.20;74.50;;;;;;5507080;25;20050;-33
2024/04/10 04:01:55;;;;;;;3.60;2.08;;;14.10;74.40;;;;;;5468259;25;20007;-33
2024/04/10 04:04:21;;;;;;;5.35;2.17;;;14.20;74.50;;;;;;5505386;25;20006;-30
2024/04/10 04:06:47;;;;;;;4.97;2.10;;;14.10;74.50;;;;;;5503614;25;19999;-32
2024/04/10 04:09:12;;;;;;;3.90;2.10;;;14.10;74.50;;;;;;5502076;25;20003;-33
2024/04/10 04:11:38;;;;;;;4.43;2.03;;;14.10;74.50;;;;;;5506812;25;20476;-31
2024/04/10 04:14:04;;;;;;;5.60;2.42;;;14.10;74.50;;;;;;5499088;25;19994;-33
2024/04/10 04:16:30;;;;;;;4.05;2.30;;;14.10;74.50;;;;;;5490494;25;20010;-34
2024/04/10 04:18:56;;;;;;;4.90;2.28;;;14.10;74.50;;;;;;5493007;25;20028;-36
2024/04/10 04:21:23;;;;;;;4.65;2.17;;;14.10;74.50;;;;;;5496846;25;19998;-35
2024/04/10 04:23:48;;;;;;;3.90;2.05;;;14.10;74.50;;;;;;5500248;25;19997;-33
2024/04/10 04:26:15;;;;;;;3.88;2.22;;;14.10;74.60;;;;;;5494450;25;20008;-33
2024/04/10 04:28:41;;;;;;;5.57;2.35;;;14.10;74.60;;;;;;5483140;25;19998;-31
2024/04/10 04:31:07;;;;;;;4.43;2.33;;;14.10;74.60;;;;;;5488320;26;19998;-35
2024/04/10 04:33:34;;;;;;;5.25;2.60;;;14.10;74.60;;;;;;5454396;26;20034;-34
2024/04/10 04:36:02;;;;;;;4.05;1.90;;;14.10;74.60;;;;;;5482973;26;20006;-33
2024/04/10 04:38:31;;;;;;;4.38;2.00;;;14.10;74.60;;;;;;5487538;26;20008;-35
2024/04/10 04:40:57;;;;;;;3.40;2.00;;;14.10;74.60;;;;;;5476749;26;20036;-31
2024/04/10 04:43:23;;;;;;;5.07;2.63;;;14.10;74.60;;;;;;5482355;26;20408;-33
2024/04/10 04:45:49;;;;;;;4.70;2.42;;;14.10;74.60;;;;;;5467794;26;20027;-31
2024/04/10 04:48:15;;;;;;;5.90;2.90;;;14.10;74.60;;;;;;5485046;26;20003;-33
2024/04/10 04:50:41;;;;;;;5.00;2.50;;;14.00;74.60;;;;;;5476150;26;19998;-31
2024/04/10 04:53:11;;;;;;;3.67;2.30;;;14.00;74.60;;;;;;5480389;26;19994;-31
2024/04/10 04:55:37;;;;;;;5.13;2.10;;;14.00;74.60;;;;;;5488972;26;20481;-31
2024/04/10 04:58:04;;;;;;;4.22;2.22;;;14.00;74.60;;;;;;5480051;25;20017;-35
2024/04/10 05:00:33;;;;;;;7.15;2.53;;;14.00;74.70;;;;;;5497091;26;20050;-36
2024/04/10 05:03:00;;;;;;;3.90;2.25;;;14.00;74.70;;;;;;5486646;26;20014;-34
2024/04/10 05:05:26;;;;;;;5.13;2.22;;;14.00;74.70;;;;;;5484062;26;20115;-31
2024/04/10 05:07:52;;;;;;;5.05;2.30;;;14.00;74.70;;;;;;5489094;26;20006;-31
2024/04/10 05:10:18;;;;;;;6.38;2.30;;;14.00;74.70;;;;;;5485311;26;20466;-32
2024/04/10 05:12:45;;;;;;;4.57;2.50;;;13.90;74.70;;;;;;5484696;26;19993;-32
2024/04/10 05:15:12;;;;;;;5.20;2.70;;;13.90;74.70;;;;;;5486815;26;20006;-32
2024/04/10 05:17:39;;;;;;;4.18;2.22;;;13.90;74.70;;;;;;5492643;26;19998;-34
2024/04/10 05:20:08;;;;;;;3.92;2.10;;;13.90;74.70;;;;;;5483741;26;19999;-35
2024/04/10 05:22:34;;;;;;;4.55;1.88;;;13.90;74.80;;;;;;5487549;26;20016;-31
2024/04/10 05:25:00;;;;;;;5.03;2.00;;;13.90;74.80;;;;;;5492006;26;19994;-35
2024/04/10 05:27:27;;;;;;;3.35;1.80;;;13.90;74.80;;;;;;5495805;26;20002;-31
2024/04/10 05:30:06;;;;;;;5.70;2.17;;;13.90;74.80;;;;;;5482576;26;20002;-34
2024/04/10 05:32:33;;;;;;;4.60;2.00;;;13.90;74.90;;;;;;5490537;26;20056;-31
2024/04/10 05:34:59;;;;;;;5.68;2.10;;;13.80;74.80;;;;;;5460481;26;20035;-31
2024/04/10 05:37:25;;;;;;;5.05;2.20;;;13.90;74.90;;;;;;5491323;26;19998;-31
2024/04/10 05:40:13;;;;;;;4.75;2.20;;;13.80;74.90;;;;;;5483866;26;19998;-32
2024/04/10 05:42:41;;;;;;;4.10;2.22;;;13.80;74.90;;;;;;5487247;26;20004;-35
2024/04/10 05:45:09;;;;;;;4.72;2.08;;;13.90;75.00;;;;;;5487287;26;20733;-32
2024/04/10 05:47:39;;;;;;;5.50;2.30;;;13.80;74.90;;;;;;5485578;26;20002;-32
2024/04/10 05:50:10;;;;;;;5.75;2.33;;;13.80;75.60;;;;;;5487088;26;20475;-32
2024/04/10 05:52:36;;;;;;;4.10;2.10;;;13.80;75.00;;;;;;5493508;26;19993;-32
2024/04/10 05:55:02;;;;;;;5.30;2.30;;;13.80;75.00;;;;;;5477838;26;20584;-31
2024/04/10 05:57:27;;;;;;;4.70;2.30;;;13.80;75.00;;;;;;5470859;26;20479;-33
2024/04/10 05:59:54;;;;;;;4.35;2.17;;;13.80;75.00;;;;;;5492800;26;20005;-31
2024/04/10 06:02:21;;;;;;;5.57;2.30;;;13.80;75.00;;;;;;5493569;26;19997;-33
2024/04/10 06:04:54;;;;;;;6.82;2.10;;;13.80;75.10;;;;;;5471314;26;20445;-32
2024/04/10 06:07:20;;;;;;;4.13;1.98;;;13.80;75.10;;;;;;5488138;26;20078;-32
2024/04/10 06:09:50;;;;;;;5.47;2.10;;;13.80;75.10;;;;;;5462143;26;20391;-35
2024/04/10 06:12:16;;;;;;;4.80;2.35;;;13.80;75.10;;;;;;5489992;26;20006;-34
2024/04/10 06:14:42;;;;;;;3.75;2.38;;;13.80;75.00;;;;;;5475198;26;19995;-33
2024/04/10 06:17:08;;;;;;;4.35;2.00;;;13.80;75.00;;;;;;5466251;26;20002;-33
2024/04/10 06:19:34;;;;;;;4.32;2.10;;;13.80;75.10;;;;;;5491781;26;19998;-31
2024/04/10 06:22:00;;;;;;;4.18;2.20;;;13.80;75.10;;;;;;5477555;26;20527;-33
2024/04/10 06:24:26;;;;;;;3.58;2.13;;;13.80;75.00;;;;;;5490039;26;20002;-31
2024/04/10 06:26:51;;;;;;;4.05;2.20;;;13.80;75.00;;;;;;5494590;26;19994;-33
2024/04/10 06:29:18;;;;;;;3.78;2.10;;;13.80;75.10;;;;;;5495712;26;20008;-32
2024/04/10 06:31:44;;;;;;;4.72;2.58;;;13.80;75.10;;;;;;5480395;26;20571;-31
2024/04/10 06:34:10;;;;;;;4.78;2.03;;;13.80;75.10;;;;;;5483971;26;19998;-33
2024/04/10 06:36:36;;;;;;;4.55;1.90;;;13.80;75.10;;;;;;5487834;26;20002;-32
2024/04/10 06:39:01;;;;;;;5.32;2.30;;;13.80;75.70;;;;;;5463550;26;20003;-36
2024/04/10 06:41:27;;;;;;;4.63;1.92;;;13.80;75.10;;;;;;5447893;26;20010;-31
2024/04/10 06:43:53;;;;;;;4.72;2.17;;;13.80;75.10;;;;;;5464234;26;20003;-33
2024/04/10 06:46:19;;;;;;;5.32;2.20;;;13.80;75.10;;;;;;5482754;26;20562;-31
2024/04/10 06:48:44;;;;;;;3.03;1.95;;;13.80;75.10;;;;;;5488433;26;20002;-31
2024/04/10 06:51:10;;;;;;;4.70;2.35;;;13.80;75.10;;;;;;5470146;26;19994;-35
2024/04/10 06:53:37;;;;;;;3.78;2.20;;;13.90;75.20;;;;;;5478972;26;19999;-32
2024/04/10 06:56:04;;;;;;;3.53;2.10;;;13.80;75.10;;;;;;5474737;26;20134;-34
2024/04/10 06:58:36;;;;;;;5.20;2.10;;;13.80;75.20;;;;;;5479958;26;20034;-30
2024/04/10 07:01:04;;;;;;;3.58;2.15;;;13.90;75.20;;;;;;5490033;26;19990;-30
2024/04/10 07:03:36;;;;;;;5.18;2.17;;;13.90;75.20;;;;;;5473980;26;19998;-31
2024/04/10 07:06:16;;;;;;;5.60;2.25;;;13.90;75.30;;;;;;5507239;26;20022;-33
2024/04/10 07:08:44;;;;;;;4.07;2.13;;;13.90;75.20;;;;;;5477547;26;20009;-31
2024/04/10 07:11:12;;;;;;;3.75;2.30;;;13.90;75.80;;;;;;5472775;26;19998;-31
2024/04/10 07:13:44;;;;;;;4.45;2.25;;;13.90;75.20;;;;;;5470898;26;20546;-34
2024/04/10 07:16:10;;;;;;;3.13;1.88;;;13.90;75.20;;;;;;5474424;26;19999;-34
2024/04/10 07:18:35;;;;;;;4.78;2.28;;;13.90;75.20;;;;;;5470092;26;20052;-35
2024/04/10 07:21:07;;;;;;;4.07;2.10;;;13.90;75.20;;;;;;5486028;26;20003;-32
2024/04/10 07:23:36;;;;;;;5.90;2.22;;;14.00;75.20;;;;;;5463990;26;20029;-31
2024/04/10 07:26:12;;;;;;;4.88;1.80;;;14.00;75.20;;;;;;5488715;26;20453;-33
2024/04/10 07:28:40;;;;;;;3.80;2.10;;;14.00;75.30;;;;;;5483265;26;19994;-34
2024/04/10 07:31:07;;;;;;;4.22;2.22;;;14.00;75.30;;;;;;5474524;26;20071;-33
2024/04/10 07:33:33;;;;;;;4.18;2.00;;;14.00;75.40;;;;;;5486741;26;19999;-33
2024/04/10 07:36:12;;;;;;;3.53;1.90;;;14.00;75.40;;;;;;5487808;26;20074;-35
2024/04/10 07:38:39;;;;;;;2.80;1.88;;;14.00;75.40;;;;;;5476947;26;19998;-32
2024/04/10 07:41:05;;;;;;;4.10;2.10;;;14.00;75.30;;;;;;5478952;26;20013;-32
2024/04/10 07:43:34;;;;;;;3.95;1.98;;;14.00;75.30;;;;;;5473489;26;19994;-34
2024/04/10 07:46:07;;;;;;;3.72;1.88;;;14.10;75.40;;;;;;5481896;26;20003;-30
2024/04/10 07:48:34;;;;;;;4.40;2.22;;;14.10;75.30;;;;;;5458853;26;19995;-32
2024/04/10 07:51:08;;;;;;;4.78;2.42;;;14.10;75.20;;;;;;5460562;26;19991;-33
2024/04/10 07:53:36;;;;;;;4.50;2.25;;;14.20;75.30;;;;;;5479699;26;19995;-32
2024/04/10 07:56:02;;;;;;;5.07;2.00;;;14.10;75.20;;;;;;5475343;26;20013;-37
2024/04/10 07:58:29;;;;;;;4.53;2.00;;;14.20;75.20;;;;;;5469398;26;20003;-35
2024/04/10 08:00:58;;;;;;;4.00;1.90;;;14.10;75.20;;;;;;5459332;26;20086;-33
2024/04/10 08:03:25;;;;;;;5.18;2.10;;;14.20;75.20;;;;;;5475150;26;19998;-33
2024/04/10 08:05:55;;;;;;;4.97;2.20;;;14.20;75.20;;;;;;5470844;26;19998;-34
2024/04/10 08:08:21;;;;;;;4.18;2.33;;;14.20;75.20;;;;;;5473205;26;19994;-32
2024/04/10 08:10:55;;;;;;;3.83;2.03;;;14.30;75.20;;;;;;5479632;26;19994;-34
2024/04/10 08:13:21;;;;;;;3.70;1.90;;;14.20;75.20;;;;;;5478985;26;20014;-33
2024/04/10 08:15:58;;;;;;;4.18;1.95;;;14.30;75.20;;;;;;5471721;26;20492;-33
2024/04/10 08:18:26;;;;;;;5.97;2.17;;;14.30;75.20;;;;;;5476344;26;20486;-33
2024/04/10 08:21:00;;;;;;;3.80;2.00;;;14.30;75.20;;;;;;5473419;26;20015;-33
2024/04/10 08:23:32;;;;;;;4.45;2.00;;;14.30;75.20;;;;;;5480100;26;19998;-35
2024/04/10 08:25:59;;;;;;;4.90;2.10;;;14.30;75.20;;;;;;5485493;26;19998;-33
2024/04/10 08:28:25;;;;;;;4.43;2.05;;;14.30;75.10;;;;;;5439462;26;20003;-34
2024/04/10 08:30:55;;;;;;;3.72;1.70;;;14.30;75.10;;;;;;5492369;26;20009;-34
2024/04/10 08:33:28;;;;;;;4.78;2.00;;;14.30;75.10;;;;;;5469714;26;19995;-33
2024/04/10 08:35:59;;;;;;;4.50;2.10;;;14.40;75.70;;;;;;5490423;26;21754;-33
2024/04/10 08:38:26;;;;;;;3.33;1.80;;;14.30;75.00;;;;;;5475098;26;19999;-35
2024/04/10 08:40:54;;;;;;;6.07;2.20;;;14.40;75.00;;;;;;5465806;26;20014;-31
2024/04/10 08:43:21;;;;;;;5.03;1.95;;;14.40;74.90;;;;;;5472103;26;20014;-34
2024/04/10 08:45:50;;;;;;;4.45;2.10;;;14.40;74.90;;;;;;5478171;26;20311;-30
2024/04/10 08:48:19;;;;;;;3.67;1.95;;;14.40;75.50;;;;;;5485751;26;20026;-33
2024/04/10 08:50:50;;;;;;;3.65;1.75;;;14.50;74.90;;;;;;5474661;26;19999;-36
2024/04/10 08:53:17;;;;;;;5.20;2.17;;;14.50;74.80;;;;;;5461242;26;20529;-36
2024/04/10 08:55:46;;;;;;;3.22;1.80;;;14.50;74.70;;;;;;5449533;26;20017;-33
2024/04/10 08:58:12;;;;;;;4.45;1.92;;;14.60;74.80;;;;;;5455503;26;20010;-33
2024/04/10 09:00:45;;;;;;;3.25;2.00;;;14.60;74.70;;;;;;5494864;26;20002;-34
2024/04/10 09:03:14;;;;;;;5.72;2.15;;;14.70;74.70;;;;;;5491240;26;20013;-34
2024/04/10 09:05:41;;;;;;;4.47;1.98;;;14.70;74.60;;;;;;5484038;26;19999;-37
2024/04/10 09:08:10;;;;;;;4.47;1.90;;;14.70;74.50;;;;;;5492812;26;19998;-33
2024/04/10 09:10:36;;;;;;;4.03;2.00;;;14.80;74.50;;;;;;5481878;26;20005;-36
2024/04/10 09:13:09;;;;;;;2.95;2.00;;;14.80;74.40;;;;;;5430941;26;19999;-33
2024/04/10 09:15:36;;;;;;;3.25;1.95;;;14.90;74.40;;;;;;5482028;26;19998;-32
2024/04/10 09:18:03;;;;;;;3.92;1.83;;;14.90;74.40;;;;;;5493449;26;20015;-37
2024/04/10 09:20:29;;;;;;;2.42;1.80;;;14.90;74.40;;;;;;5463094;26;19995;-33
2024/04/10 09:22:58;;;;;;;5.18;2.20;;;15.00;74.40;;;;;;5470443;26;20009;-34
2024/04/10 09:25:24;;;;;;;4.28;2.08;;;15.00;74.40;;;;;;5473425;26;19991;-34
2024/04/10 09:28:00;;;;;;;5.25;1.90;;;15.10;74.40;;;;;;5480136;26;20002;-33
2024/04/10 09:30:26;;;;;;;3.40;1.70;;;15.10;74.30;;;;;;5471638;26;20023;-33
2024/04/10 09:32:53;;;;;;;5.32;2.00;;;15.20;74.20;;;;;;5485724;26;20074;-32
2024/04/10 09:35:21;;;;;;;4.22;1.83;;;15.20;74.10;;;;;;5480351;26;20095;-31
2024/04/10 09:37:49;;;;;;;4.15;2.08;;;15.30;74.10;;;;;;5468633;26;20001;-32
2024/04/10 09:40:20;;;;;;;5.75;2.17;;;15.30;74.10;;;;;;5468510;26;20006;-32
2024/04/10 09:42:48;;;;;;;4.68;1.90;;;15.40;74.10;;;;;;5467095;26;20010;-31
2024/04/10 09:45:20;;;;;;;5.10;1.80;;;15.40;74.00;;;;;;5488415;26;19990;-33
2024/04/10 09:47:46;;;;;;;2.58;1.90;;;15.50;73.90;;;;;;5486840;26;19995;-34
2024/04/10 09:50:17;;;;;;;3.72;2.00;;;15.60;73.90;;;;;;5456186;26;20013;-31
2024/04/10 09:52:47;;;;;;;4.03;2.10;;;15.60;73.80;;;;;;5470768;26;20044;-32
2024/04/10 09:55:14;;;;;;;4.45;2.10;;;15.70;73.80;;;;;;5478112;26;20017;-34
2024/04/10 09:57:42;;;;;;;4.50;1.88;;;15.70;73.70;;;;;;5473792;26;20020;-33
2024/04/10 10:00:09;;;;;;;3.42;2.00;;;15.80;73.60;;;;;;5473190;26;19999;-34
2024/04/10 10:02:36;;;;;;;3.95;1.80;;;15.90;73.60;;;;;;5489325;26;19994;-35
2024/04/10 10:05:01;;;;;;;4.88;2.10;;;15.90;73.50;;;;;;5487342;26;20454;-31
2024/04/10 10:07:27;;;;;;;4.90;1.88;;;16.00;73.40;;;;;;5486736;26;20076;-33
2024/04/10 10:10:07;;;;;;;4.32;1.88;;;16.10;73.40;;;;;;5445816;26;20027;-35
2024/04/10 10:12:33;;;;;;;4.90;1.95;;;16.20;73.40;;;;;;5464269;26;20085;-32
2024/04/10 10:15:09;;;;;;;4.97;1.88;;;16.20;73.20;;;;;;5471208;26;20011;-35
2024/04/10 10:17:35;;;;;;;3.58;1.65;;;16.30;73.20;;;;;;5457809;26;19999;-33
2024/04/10 10:20:01;;;;;;;3.08;1.60;;;16.40;73.10;;;;;;5471488;26;19994;-33
2024/04/10 10:22:26;;;;;;;4.32;1.80;;;16.50;73.10;;;;;;5474165;26;19999;-32
2024/04/10 10:24:59;;;;;;;2.88;1.85;;;16.50;73.00;;;;;;5487510;26;19998;-35
2024/04/10 10:27:25;;;;;;;3.53;1.80;;;16.60;73.00;;;;;;5467546;26;20034;-32
2024/04/10 10:30:11;;;;;;;4.25;2.05;;;16.60;72.90;;;;;;5472107;26;20628;-33
2024/04/10 10:32:37;;;;;;;3.58;1.85;;;16.70;72.80;;;;;;5472577;26;20048;-30
2024/04/10 10:35:07;;;;;;;3.20;1.70;;;16.80;72.70;;;;;;5454521;26;20007;-36
2024/04/10 10:37:33;;;;;;;2.67;1.65;;;16.90;72.70;;;;;;5475533;26;20003;-34
2024/04/10 10:40:00;;;;;;;4.57;1.60;;;16.90;72.60;;;;;;5477276;26;20382;-31
2024/04/10 10:42:26;;;;;;;3.28;1.67;;;17.00;72.60;;;;;;5471220;26;19991;-33
2024/04/10 10:45:05;;;;;;;4.07;1.55;;;17.10;72.50;;;;;;5477913;26;20002;-33
2024/04/10 10:47:41;;;;;;;3.50;1.55;;;17.10;72.40;;;;;;5495233;26;20006;-32
2024/04/10 10:50:07;;;;;;;3.08;1.40;;;17.20;72.30;;;;;;5481292;26;19993;-34
2024/04/10 10:52:33;;;;;;;3.65;1.60;;;17.30;72.20;;;;;;5467700;26;20009;-31
2024/04/10 10:55:07;;;;;;;2.95;1.50;;;17.30;72.10;;;;;;5482291;26;19998;-34
2024/04/10 10:57:34;;;;;;;4.20;1.58;;;17.40;72.10;;;;;;5474218;26;20006;-37
2024/04/10 11:00:11;;;;;;;2.28;1.30;;;17.50;72.60;;;;;;5484031;26;19994;-33
2024/04/10 11:02:37;;;;;;;3.65;1.27;;;17.60;71.90;;;;;;5482349;26;20043;-33
2024/04/10 11:05:08;;;;;;;2.60;1.40;;;17.70;71.80;;;;;;5477762;26;20325;-32
2024/04/10 11:07:34;;;;;;;2.03;1.35;;;17.70;71.70;;;;;;5471655;26;20022;-35
2024/04/10 11:10:11;;;;;;;3.13;1.35;;;17.80;71.70;;;;;;5462278;26;20446;-32
2024/04/10 11:12:37;;;;;;;2.33;1.33;;;17.90;71.80;;;;;;5479098;26;20038;-32
2024/04/10 11:15:10;;;;;;;2.75;1.50;;;18.00;71.70;;;;;;5476989;26;20002;-31
2024/04/10 11:17:37;;;;;;;4.60;1.63;;;18.10;71.70;;;;;;5482718;26;19998;-36
2024/04/10 11:20:11;;;;;;;2.50;1.33;;;18.10;71.50;;;;;;5485793;26;20002;-34
2024/04/10 11:22:37;;;;;;;2.67;1.40;;;18.20;71.50;;;;;;5481185;26;19995;-33
2024/04/10 11:25:04;;;;;;;2.35;1.30;;;18.30;71.50;;;;;;5469147;26;20003;-32
2024/04/10 11:27:30;;;;;;;1.77;1.25;;;18.30;71.40;;;;;;5479664;26;20470;-31
2024/04/10 11:29:56;;;;;;;2.45;1.23;;;18.40;71.40;;;;;;5461830;26;20004;-34
2024/04/10 11:32:22;;;;;;;3.55;1.40;;;18.40;71.30;;;;;;5457267;26;20441;-31
2024/04/10 11:34:47;;;;;;;2.88;1.30;;;18.50;71.30;;;;;;5492355;26;20509;-33
2024/04/10 11:37:13;;;;;;;3.22;1.35;;;18.60;71.30;;;;;;5484341;26;20002;-30
2024/04/10 11:39:39;;;;;;;3.00;1.52;;;18.60;71.10;;;;;;5485159;26;20043;-35
2024/04/10 11:42:05;;;;;;;4.78;1.40;;;18.70;71.10;;;;;;5478818;26;20075;-35
2024/04/10 11:44:31;;;;;;;2.88;1.42;;;18.80;71.10;;;;;;5483787;26;20453;-32
2024/04/10 11:46:56;;;;;;;3.58;1.13;;;18.80;71.00;;;;;;5494999;26;20476;-35
2024/04/10 11:49:22;;;;;;;1.55;1.25;;;18.80;71.00;;;;;;5470772;26;19999;-33
2024/04/10 11:51:48;;;;;;;3.70;1.45;;;18.90;71.00;;;;;;5462353;26;20450;-33
2024/04/10 11:54:13;;;;;;;2.58;1.20;;;18.90;70.90;;;;;;5466729;26;21966;-34
2024/04/10 11:56:39;;;;;;;2.70;1.20;;;19.00;70.90;;;;;;5465436;26;19995;-32
2024/04/10 11:59:05;;;;;;;1.65;1.10;;;19.00;70.80;;;;;;5485906;26;20013;-31
2024/04/10 12:01:31;;;;;;;2.40;1.20;;;19.10;70.80;;;;;;5465294;26;20009;-32
2024/04/10 12:03:57;;;;;;;2.17;1.00;;;19.10;70.80;;;;;;5470357;26;19998;-33
2024/04/10 12:06:23;;;;;;;2.58;1.23;;;19.10;70.70;;;;;;5460944;26;20309;-32
2024/04/10 12:08:49;;;;;;;2.28;1.30;;;19.20;70.70;;;;;;5495199;26;20067;-31
2024/04/10 12:11:14;;;;;;;2.22;1.10;;;19.20;70.70;;;;;;5482191;26;20494;-31
2024/04/10 12:13:41;;;;;;;1.83;1.10;;;19.20;70.70;;;;;;5481827;26;20005;-33
2024/04/10 12:16:10;;;;;;;1.25;1.00;;;19.30;70.70;;;;;;5484472;26;20045;-32
2024/04/10 12:18:36;;;;;;;3.65;1.40;;;19.30;70.70;;;;;;5485781;26;19995;-33
2024/04/10 12:21:02;;;;;;;2.85;1.50;;;19.40;70.90;;;;;;5487143;26;19994;-32
2024/04/10 12:23:27;;;;;;;2.50;1.20;;;19.30;70.90;;;;;;5478403;26;20003;-32
2024/04/10 12:25:53;;;;;;;3.50;1.17;;;19.40;71.00;;;;;;5491540;26;20018;-32
2024/04/10 12:28:19;;;;;;;2.63;1.30;;;19.40;71.00;;;;;;5476489;26;20014;-31
2024/04/10 12:30:48;;;;;;;2.30;1.00;;;19.50;70.90;;;;;;5472371;26;20010;-33
2024/04/10 12:33:13;;;;;;;2.50;1.17;;;19.50;71.00;;;;;;5433909;26;20010;-31
2024/04/10 12:38:25;;;;;;;3.30;1.10;;;19.50;70.90;;;;;;5484166;26;20003;-35
2024/04/10 12:41:01;;;;;;;2.25;0.90;;;19.50;71.00;;;;;;5480077;26;19994;-34
2024/04/10 12:43:27;;;;;;;1.75;1.13;;;19.60;71.10;;;;;;5471721;26;20030;-33
2024/04/10 12:45:52;;;;;;;2.65;1.10;;;19.60;71.10;;;;;;5477205;26;20003;-30
2024/04/10 12:48:18;;;;;;;1.88;0.90;;;19.60;71.10;;;;;;5466011;26;20006;-32
2024/04/10 12:50:50;;;;;;;3.08;1.10;;;19.60;71.00;;;;;;5460249;26;20010;-33
2024/04/10 12:53:16;;;;;;;2.40;1.10;;;19.70;71.00;;;;;;5484743;26;20023;-32